Terminal Aerodrome Forecast
Issued by NWS

Home | Current Version | Previous Version | Text Only | Print | Product List | Glossary On
Versions: 1 2 3 4 5 6 7 8 9 10 11 12
000
FTUS42 KRAH 272329
TAFRWI
TAF
KRWI 272329Z 2800/2824 16006KT P6SM SCT040
     FM280100 VRB02KT P6SM FEW250
      TEMPO 2809/2812 3SM BR
     FM281500 10004KT P6SM SCT020 BKN200
     FM282000 VRB06KT P6SM BKN100=

USA.gov is the U.S. government's official web portal to all federal, state and local government web resources and services.